createdAt,value
2022-11-14T00:00:50.647Z,22.15
2022-11-14T00:03:36.518Z,22.95
2022-11-14T00:06:22.313Z,21.15
2022-11-14T00:09:08.325Z,20.92
2022-11-14T00:11:54.669Z,21.27
2022-11-14T00:14:41.116Z,19.80
2022-11-14T00:20:13.471Z,21.48
2022-11-14T00:22:59.479Z,20.73
2022-11-14T00:28:31.773Z,20.50
2022-11-14T00:31:18.383Z,20.70
2022-11-14T00:34:04.544Z,23.15
2022-11-14T00:36:50.595Z,20.25
2022-11-14T00:39:36.669Z,19.50
2022-11-14T00:42:22.860Z,23.88
2022-11-14T00:45:10.226Z,16.92
2022-11-14T00:47:56.312Z,19.80
2022-11-14T00:50:43.388Z,16.25
2022-11-14T00:53:29.488Z,14.77
2022-11-14T00:56:15.725Z,16.90
2022-11-14T00:59:01.898Z,15.63
2022-11-14T01:01:47.882Z,11.85
2022-11-14T01:07:19.972Z,15.07
2022-11-14T01:10:06.724Z,16.23
2022-11-14T01:12:52.833Z,16.58
2022-11-14T01:15:48.468Z,17.70
2022-11-14T01:18:35.280Z,24.73
2022-11-14T01:21:21.358Z,22.88
2022-11-14T01:24:07.700Z,22.38
2022-11-14T01:26:56.336Z,26.33
2022-11-14T01:29:42.227Z,25.15
2022-11-14T01:35:14.295Z,19.58
2022-11-14T01:40:46.825Z,21.42
2022-11-14T01:43:38.769Z,22.30
2022-11-14T01:46:39.244Z,23.52
2022-11-14T01:49:34.596Z,21.30
2022-11-14T01:52:35.440Z,19.70
2022-11-14T01:55:21.850Z,22.58
2022-11-14T02:00:54.440Z,18.27
2022-11-14T02:03:44.721Z,23.88
2022-11-14T02:06:32.073Z,18.67
2022-11-14T02:09:18.402Z,21.23
2022-11-14T02:14:56.054Z,16.67
2022-11-14T02:17:44.308Z,21.60
2022-11-14T02:20:37.174Z,15.32
2022-11-14T02:23:28.935Z,14.85
2022-11-14T02:26:20.336Z,15.27
2022-11-14T02:29:12.859Z,16.42
2022-11-14T02:31:59.299Z,25.02
2022-11-14T02:37:31.247Z,19.52
2022-11-14T02:43:03.195Z,18.13
2022-11-14T02:45:49.028Z,18.27
2022-11-14T02:48:34.958Z,17.88
2022-11-14T02:51:21.036Z,18.45
2022-11-14T02:56:52.928Z,19.65
2022-11-14T03:02:25.132Z,17.83
2022-11-14T03:07:57.319Z,20.67
2022-11-14T03:10:43.306Z,19.63
2022-11-14T03:13:30.368Z,18.70
2022-11-14T03:16:16.401Z,24.60
2022-11-14T03:19:02.599Z,18.90
2022-11-14T03:21:48.863Z,17.80
2022-11-14T03:24:34.585Z,17.75
2022-11-14T03:30:07.732Z,19.27
2022-11-14T03:32:53.832Z,20.08
2022-11-14T03:35:43.755Z,21.05
2022-11-14T03:38:30.478Z,17.90
2022-11-14T03:41:16.604Z,19.48
2022-11-14T03:44:02.465Z,23.42
2022-11-14T03:46:48.532Z,18.23
2022-11-14T03:49:34.362Z,20.05
2022-11-14T03:55:07.270Z,17.43
2022-11-14T03:57:53.553Z,19.35
2022-11-14T04:00:39.955Z,25.33
2022-11-14T04:03:26.258Z,19.05
2022-11-14T04:06:12.146Z,19.05
2022-11-14T04:08:58.244Z,20.65
2022-11-14T04:11:44.373Z,25.52
2022-11-14T04:17:16.623Z,20.27
2022-11-14T04:20:02.575Z,23.60
2022-11-14T04:22:48.601Z,17.58
2022-11-14T04:25:34.920Z,17.42
2022-11-14T04:28:20.854Z,21.08
2022-11-14T04:33:52.911Z,17.77
2022-11-14T04:36:38.947Z,23.48
2022-11-14T04:39:25.117Z,27.25
2022-11-14T04:42:11.055Z,40.15
2022-11-14T04:47:43.788Z,20.77
2022-11-14T04:50:29.793Z,23.63
2022-11-14T04:53:15.693Z,20.42
2022-11-14T04:56:01.664Z,21.00
2022-11-14T05:01:33.982Z,19.88
2022-11-14T05:07:06.064Z,17.90
2022-11-14T05:09:52.599Z,20.33
2022-11-14T05:15:24.895Z,19.25
2022-11-14T05:21:03.912Z,16.98
2022-11-14T05:23:49.875Z,17.90
2022-11-14T05:29:22.006Z,14.27
2022-11-14T05:32:11.167Z,19.48
2022-11-14T05:34:59.715Z,19.00
2022-11-14T05:40:32.033Z,16.93
2022-11-14T05:43:18.103Z,16.58
2022-11-14T05:46:09.201Z,16.02
2022-11-14T05:48:55.489Z,16.75
2022-11-14T05:51:41.337Z,17.10
2022-11-14T05:57:13.529Z,15.07
2022-11-14T06:02:46.284Z,20.00
2022-11-14T06:05:35.045Z,17.85
2022-11-14T06:08:21.212Z,17.80
2022-11-14T06:11:19.474Z,23.25
2022-11-14T06:14:10.471Z,18.98
2022-11-14T06:16:57.123Z,15.32
2022-11-14T06:19:43.055Z,17.25
2022-11-14T06:25:15.273Z,15.50
2022-11-14T06:28:01.459Z,23.38
2022-11-14T06:33:36.497Z,16.77
2022-11-14T06:36:22.962Z,15.30
2022-11-14T06:39:09.421Z,21.40
2022-11-14T06:41:55.429Z,14.07
2022-11-14T06:47:27.687Z,14.60
2022-11-14T06:50:14.215Z,13.23
2022-11-14T06:53:00.493Z,13.52
2022-11-14T06:58:49.167Z,14.23
2022-11-14T07:01:35.736Z,13.60
2022-11-14T07:04:21.717Z,13.70
2022-11-14T07:07:08.120Z,13.48
2022-11-14T07:09:56.523Z,13.10
2022-11-14T07:12:42.643Z,13.50
2022-11-14T07:15:28.641Z,13.40
2022-11-14T07:18:14.681Z,15.52
2022-11-14T07:21:04.849Z,14.18
2022-11-14T07:23:51.269Z,23.58
2022-11-14T07:29:23.304Z,24.50
2022-11-14T07:32:09.711Z,17.35
2022-11-14T07:37:48.363Z,17.90
2022-11-14T07:40:34.420Z,16.83
2022-11-14T07:46:14.323Z,20.05
2022-11-14T07:49:00.809Z,16.48
2022-11-14T07:51:46.698Z,16.95
2022-11-14T07:54:32.661Z,20.38
2022-11-14T08:00:04.894Z,15.95
2022-11-14T08:02:51.281Z,16.45
2022-11-14T08:08:23.533Z,16.90
2022-11-14T08:13:55.722Z,21.30
2022-11-14T08:19:28.055Z,65.47
2022-11-14T08:22:13.907Z,31.40
2022-11-14T08:27:46.198Z,22.80
2022-11-14T08:33:18.287Z,39.67
2022-11-14T08:38:52.801Z,19.95
2022-11-14T08:41:40.652Z,34.70
2022-11-14T08:44:27.023Z,27.55
2022-11-14T08:49:59.208Z,24.07
2022-11-14T08:52:52.006Z,23.67
2022-11-14T08:55:38.180Z,36.65
2022-11-14T09:01:10.535Z,97.25
2022-11-14T09:03:59.902Z,46.90
2022-11-14T09:06:46.458Z,30.52
2022-11-14T09:09:32.923Z,98.88
2022-11-14T09:12:19.058Z,53.30
2022-11-14T09:15:05.913Z,33.00
2022-11-14T09:17:56.842Z,35.45
2022-11-14T09:20:43.219Z,30.05
2022-11-14T09:23:30.118Z,30.42
2022-11-14T09:26:18.446Z,111.07
2022-11-14T09:29:06.423Z,37.28
2022-11-14T09:31:53.333Z,34.15
2022-11-14T09:34:43.053Z,34.72
2022-11-14T09:37:29.428Z,32.70
2022-11-14T09:43:35.996Z,36.83
2022-11-14T09:46:30.943Z,45.92
2022-11-14T09:49:45.012Z,42.92
2022-11-14T09:52:47.605Z,63.75
2022-11-14T09:55:37.072Z,51.63
2022-11-14T09:58:23.545Z,45.08
2022-11-14T10:01:38.907Z,46.95
2022-11-14T10:05:05.010Z,47.72
2022-11-14T10:08:38.196Z,74.82
2022-11-14T10:11:34.956Z,53.95
2022-11-14T10:14:55.027Z,60.92
2022-11-14T10:17:51.138Z,57.05
2022-11-14T10:20:39.961Z,53.92
2022-11-14T10:24:24.826Z,44.42
2022-11-14T10:27:19.877Z,48.55
2022-11-14T10:30:18.502Z,42.75
2022-11-14T10:33:14.151Z,61.67
2022-11-14T10:36:49.522Z,50.22
2022-11-14T10:39:52.044Z,49.13
2022-11-14T10:42:43.411Z,49.10
2022-11-14T10:45:41.818Z,217.45
2022-11-14T10:48:47.931Z,69.20
2022-11-14T10:51:43.120Z,55.00
2022-11-14T10:54:47.690Z,52.30
2022-11-14T10:57:33.739Z,48.85
2022-11-14T11:03:09.232Z,51.28
2022-11-14T11:05:58.480Z,52.28
2022-11-14T11:09:03.395Z,52.10
2022-11-14T11:12:01.377Z,51.13
2022-11-14T11:14:50.980Z,51.00
2022-11-14T11:17:42.829Z,60.65
2022-11-14T11:20:38.058Z,53.45
2022-11-14T11:23:28.343Z,55.03
2022-11-14T11:26:27.012Z,56.67
2022-11-14T11:29:13.134Z,57.97
2022-11-14T11:31:59.792Z,54.47
2022-11-14T11:34:46.328Z,69.72
2022-11-14T11:37:48.965Z,60.13
2022-11-14T11:40:35.154Z,60.00
2022-11-14T11:44:00.048Z,57.20
2022-11-14T11:47:01.070Z,57.60
2022-11-14T11:49:54.696Z,68.72
2022-11-14T11:52:58.551Z,145.23
2022-11-14T11:55:49.588Z,74.68
2022-11-14T12:09:10.856Z,77.90
2022-11-14T12:12:10.657Z,54.83
2022-11-14T12:15:30.493Z,61.50
2022-11-14T12:18:44.873Z,63.35
2022-11-14T12:22:07.438Z,56.67
2022-11-14T12:25:21.520Z,60.53
2022-11-14T12:28:45.543Z,71.85
2022-11-14T12:31:35.916Z,60.33
2022-11-14T12:34:45.774Z,65.50
2022-11-14T12:37:50.147Z,65.40
2022-11-14T12:40:48.697Z,61.92
2022-11-14T12:43:43.527Z,68.32
2022-11-14T12:47:05.242Z,63.10
2022-11-14T12:49:54.676Z,54.28
2022-11-14T12:52:40.747Z,56.90
2022-11-14T12:58:38.939Z,56.97
2022-11-14T13:01:31.386Z,48.08
2022-11-14T13:04:50.400Z,47.47
2022-11-14T13:08:07.511Z,50.05
2022-11-14T13:10:54.112Z,48.38
2022-11-14T13:14:25.911Z,47.60
2022-11-14T13:17:44.642Z,45.53
2022-11-14T13:20:54.564Z,48.50
2022-11-14T13:23:43.742Z,43.47
2022-11-14T13:26:33.121Z,48.83
2022-11-14T13:29:46.018Z,72.25
2022-11-14T13:32:41.869Z,45.22
2022-11-14T13:35:43.396Z,55.22
2022-11-14T13:39:05.569Z,58.53
2022-11-14T13:42:20.424Z,68.15
2022-11-14T13:45:41.548Z,124.38
2022-11-14T13:49:03.231Z,67.63
2022-11-14T13:51:53.715Z,69.10
2022-11-14T13:54:47.995Z,73.30
2022-11-14T13:58:01.688Z,76.35
2022-11-14T14:01:25.515Z,79.50
2022-11-14T14:04:42.551Z,78.25
2022-11-14T14:11:25.062Z,69.57
2022-11-14T14:14:57.090Z,57.40
2022-11-14T14:17:55.595Z,54.28
2022-11-14T14:20:55.116Z,47.58
2022-11-14T14:24:16.392Z,56.03
2022-11-14T14:27:20.721Z,52.92
2022-11-14T14:30:16.203Z,50.35
2022-11-14T14:33:08.548Z,41.25
2022-11-14T14:35:55.142Z,42.05
2022-11-14T14:38:41.407Z,40.13
2022-11-14T14:41:32.708Z,88.68
2022-11-14T14:44:38.261Z,36.20
2022-11-14T14:47:44.567Z,40.00
2022-11-14T14:50:40.522Z,136.05
2022-11-14T14:53:33.176Z,67.70
2022-11-14T14:56:28.148Z,56.45
2022-11-14T14:59:24.677Z,46.40
2022-11-14T15:02:17.808Z,42.25
2022-11-14T15:05:05.916Z,46.30
2022-11-14T15:07:56.962Z,36.50
2022-11-14T15:10:44.702Z,44.65
2022-11-14T15:13:31.804Z,53.65
2022-11-14T15:16:19.025Z,62.38
2022-11-14T15:19:05.906Z,38.50
2022-11-14T15:22:27.552Z,39.10
2022-11-14T15:25:15.613Z,37.90
2022-11-14T15:28:02.589Z,88.28
2022-11-14T15:31:02.220Z,35.67
2022-11-14T15:34:05.141Z,37.10
2022-11-14T15:37:19.169Z,41.05
2022-11-14T15:40:22.763Z,38.97
2022-11-14T15:43:50.666Z,39.83
2022-11-14T15:46:42.838Z,43.33
2022-11-14T15:49:29.294Z,52.40
2022-11-14T15:52:24.963Z,37.65
2022-11-14T15:55:22.006Z,40.67
2022-11-14T15:58:27.849Z,39.25
2022-11-14T16:01:27.931Z,43.35
2022-11-14T16:04:20.147Z,39.63
2022-11-14T16:07:06.718Z,38.20
2022-11-14T16:09:52.959Z,43.80
2022-11-14T16:15:25.322Z,38.20
2022-11-14T16:18:12.772Z,41.30
2022-11-14T16:20:59.732Z,36.67
2022-11-14T16:23:46.168Z,43.25
2022-11-14T16:26:33.109Z,36.13
2022-11-14T16:29:19.529Z,41.33
2022-11-14T16:32:11.005Z,44.50
2022-11-14T16:34:57.427Z,40.70
2022-11-14T16:40:29.724Z,43.38
2022-11-14T16:43:15.919Z,44.60
2022-11-14T16:48:52.423Z,39.35
2022-11-14T16:54:34.820Z,46.60
2022-11-14T16:57:21.130Z,48.10
2022-11-14T17:00:12.595Z,49.10
2022-11-14T17:03:02.057Z,48.72
2022-11-14T17:05:51.591Z,52.47
2022-11-14T17:08:38.013Z,57.50
2022-11-14T17:11:26.491Z,55.85
2022-11-14T17:14:13.298Z,65.57
2022-11-14T17:17:02.730Z,58.30
2022-11-14T17:19:49.374Z,60.42
2022-11-14T17:22:35.758Z,65.68
2022-11-14T17:30:55.213Z,88.50
2022-11-14T17:33:45.739Z,68.82
2022-11-14T17:36:45.441Z,82.93
2022-11-14T17:43:39.895Z,89.22
2022-11-14T17:46:29.066Z,92.57
2022-11-14T17:49:15.475Z,82.13
2022-11-14T17:52:06.328Z,91.00
2022-11-14T17:54:52.947Z,79.72
2022-11-14T18:00:25.650Z,64.23
2022-11-14T18:03:17.483Z,66.30
2022-11-14T18:06:28.530Z,62.72
2022-11-14T18:09:34.659Z,58.25
2022-11-14T18:12:21.255Z,62.92
2022-11-14T18:15:08.597Z,72.28
2022-11-14T18:17:55.065Z,75.63
2022-11-14T18:20:41.976Z,66.00
2022-11-14T18:23:28.330Z,66.10
2022-11-14T18:26:44.913Z,66.18
2022-11-14T18:29:32.496Z,61.83
2022-11-14T18:35:59.491Z,67.05
2022-11-14T18:38:46.887Z,66.27
2022-11-14T18:41:34.154Z,78.05
2022-11-14T18:44:21.587Z,76.25
2022-11-14T18:47:08.259Z,69.82
2022-11-14T18:49:59.450Z,78.65
2022-11-14T18:52:45.696Z,88.00
2022-11-14T18:55:32.335Z,94.57
2022-11-14T18:59:07.606Z,121.85
2022-11-14T19:01:54.130Z,115.03
2022-11-14T19:04:41.404Z,71.57
2022-11-14T19:07:29.763Z,83.50
2022-11-14T19:10:16.784Z,73.35
2022-11-14T19:13:03.256Z,64.13
2022-11-14T19:15:49.620Z,59.60
2022-11-14T19:18:36.322Z,58.05
2022-11-14T19:21:23.487Z,54.47
2022-11-14T19:24:10.554Z,58.05
2022-11-14T19:26:57.547Z,55.67
2022-11-14T19:29:45.088Z,62.47
2022-11-14T19:32:34.468Z,67.60
2022-11-14T19:35:21.213Z,55.03
2022-11-14T19:38:08.110Z,55.03
2022-11-14T19:40:54.651Z,50.85
2022-11-14T19:43:43.465Z,58.70
2022-11-14T19:46:30.100Z,52.42
2022-11-14T19:49:16.668Z,53.05
2022-11-14T19:52:03.236Z,57.33
2022-11-14T19:54:49.569Z,54.30
2022-11-14T19:57:36.005Z,50.83
2022-11-14T20:00:25.080Z,49.70
2022-11-14T20:03:12.051Z,57.53
2022-11-14T20:05:58.809Z,58.75
2022-11-14T20:08:45.225Z,53.70
2022-11-14T20:11:31.576Z,53.58
2022-11-14T20:17:03.738Z,63.20
2022-11-14T20:19:50.975Z,58.58
2022-11-14T20:22:37.228Z,57.70
2022-11-14T20:25:24.307Z,65.05
2022-11-14T20:28:12.341Z,64.32
2022-11-14T20:31:09.834Z,61.65
2022-11-14T20:33:56.756Z,70.25
2022-11-14T20:37:09.190Z,66.57
2022-11-14T20:39:49.421Z,70.40
2022-11-14T20:45:22.001Z,76.03
2022-11-14T20:48:08.482Z,70.80
2022-11-14T20:51:03.639Z,75.88
2022-11-14T20:53:52.946Z,74.53
2022-11-14T20:56:39.181Z,73.80
2022-11-14T20:59:25.170Z,81.35
2022-11-14T21:02:13.141Z,76.15
2022-11-14T21:05:00.558Z,68.72
2022-11-14T21:07:47.008Z,88.88
2022-11-14T21:10:48.150Z,83.88
2022-11-14T21:13:55.730Z,79.28
2022-11-14T21:19:29.363Z,74.67
2022-11-14T21:22:15.880Z,77.57
2022-11-14T21:25:02.098Z,91.43
2022-11-14T21:27:48.171Z,77.47
2022-11-14T21:30:37.041Z,89.25
2022-11-14T21:33:23.357Z,90.47
2022-11-14T21:39:17.659Z,80.15
2022-11-14T21:42:04.602Z,80.15
2022-11-14T21:44:50.703Z,94.68
2022-11-14T21:47:36.736Z,78.88
2022-11-14T21:53:16.122Z,83.13
2022-11-14T21:56:22.211Z,98.57
2022-11-14T21:59:16.855Z,84.78
2022-11-14T22:02:21.880Z,88.57
2022-11-14T22:05:08.417Z,84.72
2022-11-14T22:07:54.647Z,89.10
2022-11-14T22:10:41.260Z,84.38
2022-11-14T22:16:19.561Z,89.03
2022-11-14T22:19:06.107Z,79.55
2022-11-14T22:21:52.450Z,86.70
2022-11-14T22:24:38.828Z,92.32
2022-11-14T22:30:11.911Z,94.17
2022-11-14T22:33:00.378Z,90.25
2022-11-14T22:35:46.376Z,94.78
2022-11-14T22:41:30.744Z,94.93
2022-11-14T22:44:18.782Z,107.72
2022-11-14T22:47:05.282Z,93.75
2022-11-14T22:52:37.410Z,99.32
2022-11-14T22:55:23.509Z,89.88
2022-11-14T22:58:09.640Z,86.85
2022-11-14T23:00:56.075Z,97.03
2022-11-14T23:04:04.349Z,81.78
2022-11-14T23:06:50.872Z,88.97
2022-11-14T23:09:37.045Z,92.43
2022-11-14T23:12:23.807Z,95.25
2022-11-14T23:15:10.556Z,92.85
2022-11-14T23:17:59.787Z,77.88
2022-11-14T23:20:47.396Z,76.90
2022-11-14T23:23:33.900Z,79.70
2022-11-14T23:26:20.962Z,76.20
2022-11-14T23:29:07.138Z,81.22
2022-11-14T23:31:53.383Z,77.68
2022-11-14T23:34:39.393Z,84.07
2022-11-14T23:37:25.608Z,71.57
2022-11-14T23:40:12.249Z,76.30
2022-11-14T23:42:58.683Z,76.30
2022-11-14T23:45:45.282Z,77.93
2022-11-14T23:48:32.195Z,73.15
2022-11-14T23:51:18.691Z,78.22
2022-11-14T23:54:04.995Z,80.43
2022-11-14T23:56:51.347Z,61.17
2022-11-14T23:59:37.943Z,70.45
